sensor_id;sensor_type;location;lat;lon;timestamp;pressure;altitude;pressure_sealevel;temperature;humidity
63447;BME280;49577;49.872;6.190;2023-02-12T00:00:31;101594.90;;;4.76;84.17
63447;BME280;49577;49.872;6.190;2023-02-12T00:02:57;101595.77;;;4.76;84.22
63447;BME280;49577;49.872;6.190;2023-02-12T00:05:22;101600.61;;;4.77;84.19
63447;BME280;49577;49.872;6.190;2023-02-12T00:07:47;101596.63;;;4.77;84.31
63447;BME280;49577;49.872;6.190;2023-02-12T00:10:12;101589.88;;;4.76;84.33
63447;BME280;49577;49.872;6.190;2023-02-12T00:12:38;101586.77;;;4.78;84.42
63447;BME280;49577;49.872;6.190;2023-02-12T00:15:03;101591.44;;;4.78;84.31
63447;BME280;49577;49.872;6.190;2023-02-12T00:17:28;101589.17;;;4.77;84.23
63447;BME280;49577;49.872;6.190;2023-02-12T00:19:54;101589.70;;;4.77;84.31
63447;BME280;49577;49.872;6.190;2023-02-12T00:22:19;101588.50;;;4.76;84.33
63447;BME280;49577;49.872;6.190;2023-02-12T00:24:44;101582.82;;;4.72;84.32
63447;BME280;49577;49.872;6.190;2023-02-12T00:27:09;101577.47;;;4.70;84.40
63447;BME280;49577;49.872;6.190;2023-02-12T00:29:35;101579.21;;;4.70;84.44
63447;BME280;49577;49.872;6.190;2023-02-12T00:32:01;101583.54;;;4.69;84.29
63447;BME280;49577;49.872;6.190;2023-02-12T00:34:26;101578.34;;;4.68;84.44
63447;BME280;49577;49.872;6.190;2023-02-12T00:36:51;101578.69;;;4.68;84.49
63447;BME280;49577;49.872;6.190;2023-02-12T00:39:16;101575.80;;;4.63;84.45
63447;BME280;49577;49.872;6.190;2023-02-12T00:41:41;101577.34;;;4.63;84.73
63447;BME280;49577;49.872;6.190;2023-02-12T00:44:07;101580.45;;;4.64;84.84
63447;BME280;49577;49.872;6.190;2023-02-12T00:46:32;101578.02;;;4.65;84.91
63447;BME280;49577;49.872;6.190;2023-02-12T00:48:57;101577.51;;;4.66;84.81
63447;BME280;49577;49.872;6.190;2023-02-12T00:51:22;101575.77;;;4.65;84.96
63447;BME280;49577;49.872;6.190;2023-02-12T00:53:47;101569.86;;;4.67;84.88
63447;BME280;49577;49.872;6.190;2023-02-12T00:56:13;101570.92;;;4.65;84.59
63447;BME280;49577;49.872;6.190;2023-02-12T00:58:38;101573.35;;;4.65;84.72
63447;BME280;49577;49.872;6.190;2023-02-12T01:01:03;101574.04;;;4.66;84.76
63447;BME280;49577;49.872;6.190;2023-02-12T01:03:29;101573.17;;;4.66;84.70
63447;BME280;49577;49.872;6.190;2023-02-12T01:05:54;101570.76;;;4.64;84.40
63447;BME280;49577;49.872;6.190;2023-02-12T01:08:21;101579.98;;;4.57;84.45
63447;BME280;49577;49.872;6.190;2023-02-12T01:10:52;101577.27;;;4.51;84.89
63447;BME280;49577;49.872;6.190;2023-02-12T01:13:18;101578.12;;;4.52;85.25
63447;BME280;49577;49.872;6.190;2023-02-12T01:15:43;101584.84;;;4.54;85.26
63447;BME280;49577;49.872;6.190;2023-02-12T01:18:08;101582.59;;;4.54;85.36
63447;BME280;49577;49.872;6.190;2023-02-12T01:20:33;101582.93;;;4.56;85.44
63447;BME280;49577;49.872;6.190;2023-02-12T01:22:59;101576.50;;;4.58;85.26
63447;BME280;49577;49.872;6.190;2023-02-12T01:25:25;101574.08;;;4.59;85.22
63447;BME280;49577;49.872;6.190;2023-02-12T01:27:52;101575.81;;;4.59;85.23
63447;BME280;49577;49.872;6.190;2023-02-12T01:30:17;101575.63;;;4.61;85.37
63447;BME280;49577;49.872;6.190;2023-02-12T01:32:46;101578.71;;;4.64;85.26
63447;BME280;49577;49.872;6.190;2023-02-12T01:35:11;101578.36;;;4.64;85.18
63447;BME280;49577;49.872;6.190;2023-02-12T01:37:36;101578.90;;;4.63;84.95
63447;BME280;49577;49.872;6.190;2023-02-12T01:40:02;101576.85;;;4.61;84.89
63447;BME280;49577;49.872;6.190;2023-02-12T01:42:27;101575.64;;;4.60;85.08
63447;BME280;49577;49.872;6.190;2023-02-12T01:47:37;101571.65;;;4.60;85.11
63447;BME280;49577;49.872;6.190;2023-02-12T01:50:02;101574.27;;;4.60;85.10
63447;BME280;49577;49.872;6.190;2023-02-12T01:52:29;101575.29;;;4.61;85.00
63447;BME280;49577;49.872;6.190;2023-02-12T01:54:57;101578.05;;;4.62;85.10
63447;BME280;49577;49.872;6.190;2023-02-12T01:57:24;101574.58;;;4.63;85.13
63447;BME280;49577;49.872;6.190;2023-02-12T01:59:51;101573.71;;;4.62;84.89
63447;BME280;49577;49.872;6.190;2023-02-12T02:02:18;101579.60;;;4.62;85.09
63447;BME280;49577;49.872;6.190;2023-02-12T02:04:45;101573.90;;;4.62;84.93
63447;BME280;49577;49.872;6.190;2023-02-12T02:07:11;101573.91;;;4.60;84.98
63447;BME280;49577;49.872;6.190;2023-02-12T02:09:37;101574.08;;;4.59;85.16
63447;BME280;49577;49.872;6.190;2023-02-12T02:12:03;101567.85;;;4.58;84.97
63447;BME280;49577;49.872;6.190;2023-02-12T02:14:47;101565.94;;;4.59;85.27
63447;BME280;49577;49.872;6.190;2023-02-12T02:32:30;101569.64;;;4.52;85.11
63447;BME280;49577;49.872;6.190;2023-02-12T02:35:04;101567.56;;;4.51;85.26
63447;BME280;49577;49.872;6.190;2023-02-12T02:37:39;101560.62;;;4.53;85.34
63447;BME280;49577;49.872;6.190;2023-02-12T02:42:36;101557.33;;;4.56;85.22
63447;BME280;49577;49.872;6.190;2023-02-12T02:45:14;101553.85;;;4.57;85.18
63447;BME280;49577;49.872;6.190;2023-02-12T02:47:40;101552.45;;;4.58;85.15
63447;BME280;49577;49.872;6.190;2023-02-12T02:50:09;101550.02;;;4.60;85.24
63447;BME280;49577;49.872;6.190;2023-02-12T02:52:45;101550.02;;;4.62;85.21
63447;BME280;49577;49.872;6.190;2023-02-12T02:55:13;101549.81;;;4.63;85.03
63447;BME280;49577;49.872;6.190;2023-02-12T02:57:43;101545.33;;;4.62;84.96
63447;BME280;49577;49.872;6.190;2023-02-12T03:00:19;101547.95;;;4.60;85.07
63447;BME280;49577;49.872;6.190;2023-02-12T03:02:54;101548.11;;;4.59;85.00
63447;BME280;49577;49.872;6.190;2023-02-12T03:05:28;101541.20;;;4.58;84.94
63447;BME280;49577;49.872;6.190;2023-02-12T03:07:58;101545.53;;;4.58;85.14
63447;BME280;49577;49.872;6.190;2023-02-12T03:10:29;101541.55;;;4.57;85.03
63447;BME280;49577;49.872;6.190;2023-02-12T03:13:09;101544.52;;;4.56;85.00
63447;BME280;49577;49.872;6.190;2023-02-12T03:18:01;101543.61;;;4.59;85.30
63447;BME280;49577;49.872;6.190;2023-02-12T03:20:29;101542.58;;;4.60;85.23
63447;BME280;49577;49.872;6.190;2023-02-12T03:22:57;101542.39;;;4.62;85.18
63447;BME280;49577;49.872;6.190;2023-02-12T03:25:27;101544.81;;;4.62;84.99
63447;BME280;49577;49.872;6.190;2023-02-12T03:31:06;101535.34;;;4.53;84.95
63447;BME280;49577;49.872;6.190;2023-02-12T03:33:38;101540.40;;;4.51;85.03
63447;BME280;49577;49.872;6.190;2023-02-12T03:36:23;101538.32;;;4.49;85.15
63447;BME280;49577;49.872;6.190;2023-02-12T03:38:51;101544.02;;;4.50;85.31
63447;BME280;49577;49.872;6.190;2023-02-12T03:41:25;101539.88;;;4.49;85.30
63447;BME280;49577;49.872;6.190;2023-02-12T03:43:53;101539.36;;;4.50;85.44
63447;BME280;49577;49.872;6.190;2023-02-12T03:46:35;101534.67;;;4.52;85.33
63447;BME280;49577;49.872;6.190;2023-02-12T03:49:15;101536.05;;;4.53;85.21
63447;BME280;49577;49.872;6.190;2023-02-12T03:51:44;101535.89;;;4.51;85.00
63447;BME280;49577;49.872;6.190;2023-02-12T03:54:09;101537.48;;;4.47;85.10
63447;BME280;49577;49.872;6.190;2023-02-12T03:59:04;101539.90;;;4.46;85.47
63447;BME280;49577;49.872;6.190;2023-02-12T04:01:30;101537.64;;;4.49;85.58
63447;BME280;49577;49.872;6.190;2023-02-12T04:03:56;101539.52;;;4.50;85.57
63447;BME280;49577;49.872;6.190;2023-02-12T04:06:22;101538.13;;;4.52;85.60
63447;BME280;49577;49.872;6.190;2023-02-12T04:08:49;101541.23;;;4.55;85.60
63447;BME280;49577;49.872;6.190;2023-02-12T04:11:24;101540.69;;;4.58;85.52
63447;BME280;49577;49.872;6.190;2023-02-12T04:13:58;101540.33;;;4.59;85.40
63447;BME280;49577;49.872;6.190;2023-02-12T04:16:40;101547.10;;;4.57;85.28
63447;BME280;49577;49.872;6.190;2023-02-12T04:19:08;101547.81;;;4.54;85.10
63447;BME280;49577;49.872;6.190;2023-02-12T04:21:39;101550.77;;;4.50;85.18
63447;BME280;49577;49.872;6.190;2023-02-12T04:26:46;101551.16;;;4.44;85.29
63447;BME280;49577;49.872;6.190;2023-02-12T04:32:04;101552.71;;;4.47;85.58
63447;BME280;49577;49.872;6.190;2023-02-12T04:34:43;101552.02;;;4.48;85.51
63447;BME280;49577;49.872;6.190;2023-02-12T04:37:16;101549.59;;;4.47;85.34
63447;BME280;49577;49.872;6.190;2023-02-12T04:39:42;101557.20;;;4.47;85.48
63447;BME280;49577;49.872;6.190;2023-02-12T04:42:08;101552.00;;;4.49;85.51
63447;BME280;49577;49.872;6.190;2023-02-12T04:44:37;101556.14;;;4.52;85.56
63447;BME280;49577;49.872;6.190;2023-02-12T04:47:02;101562.86;;;4.54;85.49
63447;BME280;49577;49.872;6.190;2023-02-12T04:49:27;101559.05;;;4.55;85.47
63447;BME280;49577;49.872;6.190;2023-02-12T04:51:53;101560.09;;;4.57;85.47
63447;BME280;49577;49.872;6.190;2023-02-12T04:54:18;101561.98;;;4.57;85.36
63447;BME280;49577;49.872;6.190;2023-02-12T04:56:44;101564.60;;;4.56;85.09
63447;BME280;49577;49.872;6.190;2023-02-12T04:59:10;101558.38;;;4.53;85.07
63447;BME280;49577;49.872;6.190;2023-02-12T05:01:36;101558.05;;;4.51;85.34
63447;BME280;49577;49.872;6.190;2023-02-12T05:04:01;101557.89;;;4.51;85.40
63447;BME280;49577;49.872;6.190;2023-02-12T05:06:27;101556.64;;;4.53;85.46
63447;BME280;49577;49.872;6.190;2023-02-12T05:08:54;101557.16;;;4.53;85.40
63447;BME280;49577;49.872;6.190;2023-02-12T05:11:19;101556.81;;;4.54;85.44
63447;BME280;49577;49.872;6.190;2023-02-12T05:13:47;101553.69;;;4.55;85.42
63447;BME280;49577;49.872;6.190;2023-02-12T05:16:13;101559.21;;;4.57;85.28
63447;BME280;49577;49.872;6.190;2023-02-12T05:18:38;101555.06;;;4.57;85.39
63447;BME280;49577;49.872;6.190;2023-02-12T05:21:03;101560.61;;;4.57;85.20
63447;BME280;49577;49.872;6.190;2023-02-12T05:23:29;101561.47;;;4.57;85.31
63447;BME280;49577;49.872;6.190;2023-02-12T05:25:59;101560.08;;;4.57;85.17
63447;BME280;49577;49.872;6.190;2023-02-12T05:28:24;101559.56;;;4.56;85.28
63447;BME280;49577;49.872;6.190;2023-02-12T05:30:50;101561.30;;;4.55;85.09
63447;BME280;49577;49.872;6.190;2023-02-12T05:33:15;101561.48;;;4.54;85.22
63447;BME280;49577;49.872;6.190;2023-02-12T05:35:40;101572.38;;;4.54;85.35
63447;BME280;49577;49.872;6.190;2023-02-12T05:38:05;101566.14;;;4.56;85.27
63447;BME280;49577;49.872;6.190;2023-02-12T05:40:31;101566.16;;;4.56;85.35
63447;BME280;49577;49.872;6.190;2023-02-12T05:42:56;101567.70;;;4.55;85.17
63447;BME280;49577;49.872;6.190;2023-02-12T05:45:21;101572.58;;;4.52;85.18
63447;BME280;49577;49.872;6.190;2023-02-12T05:47:52;101570.00;;;4.47;85.09
63447;BME280;49577;49.872;6.190;2023-02-12T05:50:17;101566.05;;;4.43;85.23
63447;BME280;49577;49.872;6.190;2023-02-12T05:52:42;101567.64;;;4.40;85.46
63447;BME280;49577;49.872;6.190;2023-02-12T05:55:07;101562.63;;;4.39;85.52
63447;BME280;49577;49.872;6.190;2023-02-12T05:57:32;101565.38;;;4.40;85.65
63447;BME280;49577;49.872;6.190;2023-02-12T05:59:58;101565.73;;;4.39;85.64
63447;BME280;49577;49.872;6.190;2023-02-12T06:02:23;101566.07;;;4.40;85.63
63447;BME280;49577;49.872;6.190;2023-02-12T06:04:48;101567.83;;;4.39;85.70
63447;BME280;49577;49.872;6.190;2023-02-12T06:07:13;101567.14;;;4.38;85.86
63447;BME280;49577;49.872;6.190;2023-02-12T06:09:39;101569.73;;;4.39;85.90
63447;BME280;49577;49.872;6.190;2023-02-12T06:12:04;101570.41;;;4.40;85.95
63447;BME280;49577;49.872;6.190;2023-02-12T06:14:29;101572.45;;;4.41;86.06
63447;BME280;49577;49.872;6.190;2023-02-12T06:16:54;101572.29;;;4.43;86.12
63447;BME280;49577;49.872;6.190;2023-02-12T06:19:19;101569.70;;;4.43;85.89
63447;BME280;49577;49.872;6.190;2023-02-12T06:21:45;101574.17;;;4.44;86.01
63447;BME280;49577;49.872;6.190;2023-02-12T06:24:11;101576.92;;;4.46;85.93
63447;BME280;49577;49.872;6.190;2023-02-12T06:26:37;101576.42;;;4.45;85.97
63447;BME280;49577;49.872;6.190;2023-02-12T06:29:02;101574.02;;;4.44;85.97
63447;BME280;49577;49.872;6.190;2023-02-12T06:31:29;101575.92;;;4.43;85.97
63447;BME280;49577;49.872;6.190;2023-02-12T06:33:56;101576.42;;;4.46;86.05
63447;BME280;49577;49.872;6.190;2023-02-12T06:36:22;101578.13;;;4.48;86.12
63447;BME280;49577;49.872;6.190;2023-02-12T06:38:47;101575.70;;;4.51;86.16
63447;BME280;49577;49.872;6.190;2023-02-12T06:41:13;101575.34;;;4.53;86.02
63447;BME280;49577;49.872;6.190;2023-02-12T06:43:38;101575.50;;;4.53;85.89
63447;BME280;49577;49.872;6.190;2023-02-12T06:46:04;101572.40;;;4.52;85.86
63447;BME280;49577;49.872;6.190;2023-02-12T06:48:30;101576.21;;;4.52;85.82
63447;BME280;49577;49.872;6.190;2023-02-12T06:50:55;101577.77;;;4.50;85.65
63447;BME280;49577;49.872;6.190;2023-02-12T06:53:20;101578.81;;;4.49;85.81
63447;BME280;49577;49.872;6.190;2023-02-12T06:55:46;101576.40;;;4.49;85.95
63447;BME280;49577;49.872;6.190;2023-02-12T06:58:11;101579.33;;;4.50;85.97
63447;BME280;49577;49.872;6.190;2023-02-12T07:00:36;101581.93;;;4.52;86.07
63447;BME280;49577;49.872;6.190;2023-02-12T07:03:01;101584.66;;;4.55;86.05
63447;BME280;49577;49.872;6.190;2023-02-12T07:05:26;101586.54;;;4.59;86.03
63447;BME280;49577;49.872;6.190;2023-02-12T07:07:51;101587.56;;;4.60;85.74
63447;BME280;49577;49.872;6.190;2023-02-12T07:10:17;101588.97;;;4.61;85.68
63447;BME280;49577;49.872;6.190;2023-02-12T07:12:42;101592.78;;;4.58;85.50
63447;BME280;49577;49.872;6.190;2023-02-12T07:15:08;101590.03;;;4.56;85.58
63447;BME280;49577;49.872;6.190;2023-02-12T07:17:33;101591.94;;;4.55;85.75
63447;BME280;49577;49.872;6.190;2023-02-12T07:19:58;101591.42;;;4.55;85.81
63447;BME280;49577;49.872;6.190;2023-02-12T07:22:23;101595.05;;;4.57;85.86
63447;BME280;49577;49.872;6.190;2023-02-12T07:24:49;101592.63;;;4.57;85.86
63447;BME280;49577;49.872;6.190;2023-02-12T07:27:14;101595.73;;;4.57;85.76
63447;BME280;49577;49.872;6.190;2023-02-12T07:29:39;101595.91;;;4.57;85.68
63447;BME280;49577;49.872;6.190;2023-02-12T07:32:04;101594.54;;;4.56;85.85
63447;BME280;49577;49.872;6.190;2023-02-12T07:34:30;101599.73;;;4.57;85.94
63447;BME280;49577;49.872;6.190;2023-02-12T07:36:55;101598.33;;;4.57;85.86
63447;BME280;49577;49.872;6.190;2023-02-12T07:39:20;101600.05;;;4.59;86.17
63447;BME280;49577;49.872;6.190;2023-02-12T07:41:45;101599.48;;;4.64;86.14
63447;BME280;49577;49.872;6.190;2023-02-12T07:44:11;101606.39;;;4.67;86.02
63447;BME280;49577;49.872;6.190;2023-02-12T07:49:02;101612.59;;;4.73;85.93
63447;BME280;49577;49.872;6.190;2023-02-12T07:51:29;101610.84;;;4.76;85.82
63447;BME280;49577;49.872;6.190;2023-02-12T07:53:56;101613.94;;;4.77;85.86
63447;BME280;49577;49.872;6.190;2023-02-12T07:56:22;101610.98;;;4.79;85.79
63447;BME280;49577;49.872;6.190;2023-02-12T07:58:49;101617.73;;;4.80;85.71
63447;BME280;49577;49.872;6.190;2023-02-12T08:01:19;101617.89;;;4.83;85.83
63447;BME280;49577;49.872;6.190;2023-02-12T08:03:46;101620.12;;;4.86;85.75
63447;BME280;49577;49.872;6.190;2023-02-12T08:06:13;101620.96;;;4.89;85.75
63447;BME280;49577;49.872;6.190;2023-02-12T08:08:38;101620.75;;;4.94;85.82
63447;BME280;49577;49.872;6.190;2023-02-12T08:11:07;101618.65;;;4.97;85.52
63447;BME280;49577;49.872;6.190;2023-02-12T08:13:34;101614.84;;;4.97;85.50
63447;BME280;49577;49.872;6.190;2023-02-12T08:16:03;101617.09;;;4.98;85.59
63447;BME280;49577;49.872;6.190;2023-02-12T08:18:29;101617.41;;;5.00;85.57
63447;BME280;49577;49.872;6.190;2023-02-12T08:20:54;101619.64;;;5.03;85.56
63447;BME280;49577;49.872;6.190;2023-02-12T08:23:19;101620.66;;;5.06;85.57
63447;BME280;49577;49.872;6.190;2023-02-12T08:25:45;101621.49;;;5.10;85.47
63447;BME280;49577;49.872;6.190;2023-02-12T08:28:10;101615.73;;;5.16;85.44
63447;BME280;49577;49.872;6.190;2023-02-12T08:30:35;101612.19;;;5.25;85.56
63447;BME280;49577;49.872;6.190;2023-02-12T08:33:00;101616.95;;;5.33;85.44
63447;BME280;49577;49.872;6.190;2023-02-12T08:35:25;101620.71;;;5.40;85.25
63447;BME280;49577;49.872;6.190;2023-02-12T08:37:51;101623.61;;;5.46;85.08
63447;BME280;49577;49.872;6.190;2023-02-12T08:40:17;101624.77;;;5.51;84.84
63447;BME280;49577;49.872;6.190;2023-02-12T08:42:42;101622.48;;;5.54;84.66
63447;BME280;49577;49.872;6.190;2023-02-12T08:45:07;101623.48;;;5.58;84.63
63447;BME280;49577;49.872;6.190;2023-02-12T08:47:32;101623.45;;;5.62;84.43
63447;BME280;49577;49.872;6.190;2023-02-12T08:49:58;101618.59;;;5.63;84.41
63447;BME280;49577;49.872;6.190;2023-02-12T08:52:23;101619.11;;;5.64;84.41
63447;BME280;49577;49.872;6.190;2023-02-12T08:54:48;101620.98;;;5.65;84.43
63447;BME280;49577;49.872;6.190;2023-02-12T08:57:13;101619.38;;;5.71;84.59
63447;BME280;49577;49.872;6.190;2023-02-12T08:59:38;101623.27;;;5.78;84.53
63447;BME280;49577;49.872;6.190;2023-02-12T09:02:04;101622.68;;;5.85;84.33
63447;BME280;49577;49.872;6.190;2023-02-12T09:04:32;101619.14;;;5.93;84.27
63447;BME280;49577;49.872;6.190;2023-02-12T09:06:59;101616.84;;;5.99;83.92
63447;BME280;49577;49.872;6.190;2023-02-12T09:09:25;101613.35;;;6.00;83.77
63447;BME280;49577;49.872;6.190;2023-02-12T09:11:50;101613.98;;;6.05;83.88
63447;BME280;49577;49.872;6.190;2023-02-12T09:14:15;101610.44;;;6.11;83.51
63447;BME280;49577;49.872;6.190;2023-02-12T09:16:41;101615.40;;;6.17;83.33
63447;BME280;49577;49.872;6.190;2023-02-12T09:19:07;101613.63;;;6.19;83.20
63447;BME280;49577;49.872;6.190;2023-02-12T09:21:33;101609.08;;;6.22;83.21
63447;BME280;49577;49.872;6.190;2023-02-12T09:23:59;101607.45;;;6.27;83.07
63447;BME280;49577;49.872;6.190;2023-02-12T09:26:24;101608.03;;;6.36;83.26
63447;BME280;49577;49.872;6.190;2023-02-12T09:28:50;101610.52;;;6.45;82.99
63447;BME280;49577;49.872;6.190;2023-02-12T09:31:20;101607.63;;;6.52;82.78
63447;BME280;49577;49.872;6.190;2023-02-12T09:33:47;101605.77;;;6.61;82.59
63447;BME280;49577;49.872;6.190;2023-02-12T09:36:13;101603.23;;;6.69;82.24
63447;BME280;49577;49.872;6.190;2023-02-12T09:38:38;101602.23;;;6.77;81.95
63447;BME280;49577;49.872;6.190;2023-02-12T09:46:32;101600.19;;;6.97;80.91
63447;BME280;49577;49.872;6.190;2023-02-12T09:49:13;101598.05;;;7.00;80.55
63447;BME280;49577;49.872;6.190;2023-02-12T09:51:43;101601.27;;;7.05;80.40
63447;BME280;49577;49.872;6.190;2023-02-12T09:54:13;101604.33;;;7.10;80.38
63447;BME280;49577;49.872;6.190;2023-02-12T09:56:41;101607.34;;;7.16;80.24
63447;BME280;49577;49.872;6.190;2023-02-12T09:59:07;101611.41;;;7.22;79.97
63447;BME280;49577;49.872;6.190;2023-02-12T10:01:32;101616.03;;;7.26;79.58
63447;BME280;49577;49.872;6.190;2023-02-12T10:03:58;101616.84;;;7.29;79.38
63447;BME280;49577;49.872;6.190;2023-02-12T10:06:24;101613.46;;;7.33;79.09
63447;BME280;49577;49.872;6.190;2023-02-12T10:16:55;101606.68;;;7.64;78.31
63447;BME280;49577;49.872;6.190;2023-02-12T10:21:58;101606.77;;;7.77;77.98
63447;BME280;49577;49.872;6.190;2023-02-12T10:26:58;101604.48;;;7.86;77.49
63447;BME280;49577;49.872;6.190;2023-02-12T10:29:26;101598.71;;;7.98;77.28
63447;BME280;49577;49.872;6.190;2023-02-12T10:31:56;101597.02;;;8.03;76.84
63447;BME280;49577;49.872;6.190;2023-02-12T10:34:24;101593.37;;;8.11;76.98
63447;BME280;49577;49.872;6.190;2023-02-12T10:36:50;101595.21;;;8.22;76.57
63447;BME280;49577;49.872;6.190;2023-02-12T10:39:23;101593.09;;;8.32;76.37
63447;BME280;49577;49.872;6.190;2023-02-12T10:41:57;101597.09;;;8.42;76.19
63447;BME280;49577;49.872;6.190;2023-02-12T10:44:25;101596.00;;;8.52;75.80
63447;BME280;49577;49.872;6.190;2023-02-12T10:46:50;101597.11;;;8.56;75.15
63447;BME280;49577;49.872;6.190;2023-02-12T10:49:16;101593.61;;;8.57;74.90
63447;BME280;49577;49.872;6.190;2023-02-12T10:54:43;101581.75;;;8.73;74.25
63447;BME280;49577;49.872;6.190;2023-02-12T10:59:34;101576.85;;;8.81;74.23
63447;BME280;49577;49.872;6.190;2023-02-12T11:01:59;101574.00;;;8.91;73.96
63447;BME280;49577;49.872;6.190;2023-02-12T11:04:29;101574.42;;;9.01;73.80
63447;BME280;49577;49.872;6.190;2023-02-12T11:09:26;101563.03;;;9.18;72.59
63447;BME280;49577;49.872;6.190;2023-02-12T11:11:52;101554.95;;;9.27;72.03
63447;BME280;49577;49.872;6.190;2023-02-12T11:14:18;101555.17;;;9.31;71.51
63447;BME280;49577;49.872;6.190;2023-02-12T11:16:54;101558.89;;;9.36;71.82
63447;BME280;49577;49.872;6.190;2023-02-12T11:19:21;101559.39;;;9.50;71.92
63447;BME280;49577;49.872;6.190;2023-02-12T11:21:47;101557.36;;;9.61;71.41
63447;BME280;49577;49.872;6.190;2023-02-12T11:24:20;101550.73;;;9.67;71.50
63447;BME280;49577;49.872;6.190;2023-02-12T11:26:46;101551.23;;;9.73;70.64
63447;BME280;49577;49.872;6.190;2023-02-12T11:29:21;101549.58;;;9.77;70.84
63447;BME280;49577;49.872;6.190;2023-02-12T11:32:01;101552.42;;;9.75;70.44
63447;BME280;49577;49.872;6.190;2023-02-12T11:34:27;101544.88;;;9.70;70.25
63447;BME280;49577;49.872;6.190;2023-02-12T11:36:53;101535.48;;;9.63;70.43
63447;BME280;49577;49.872;6.190;2023-02-12T11:41:47;101534.23;;;9.58;70.51
63447;BME280;49577;49.872;6.190;2023-02-12T11:44:21;101533.60;;;9.49;69.37
63447;BME280;49577;49.872;6.190;2023-02-12T11:46:49;101532.23;;;9.35;69.97
63447;BME280;49577;49.872;6.190;2023-02-12T11:49:20;101527.36;;;9.28;70.20
63447;BME280;49577;49.872;6.190;2023-02-12T11:51:47;101527.07;;;9.26;70.21
63447;BME280;49577;49.872;6.190;2023-02-12T11:54:17;101523.34;;;9.22;70.28
63447;BME280;49577;49.872;6.190;2023-02-12T11:56:44;101523.19;;;9.21;70.59
63447;BME280;49577;49.872;6.190;2023-02-12T11:59:55;101525.31;;;9.20;70.29
63447;BME280;49577;49.872;6.190;2023-02-12T12:01:55;101525.08;;;9.16;70.64
63447;BME280;49577;49.872;6.190;2023-02-12T12:04:23;101527.59;;;9.20;70.75
63447;BME280;49577;49.872;6.190;2023-02-12T12:06:56;101524.11;;;9.19;70.55
63447;BME280;49577;49.872;6.190;2023-02-12T12:14:26;101517.33;;;9.19;70.50
63447;BME280;49577;49.872;6.190;2023-02-12T12:17:01;101518.30;;;9.15;70.72
63447;BME280;49577;49.872;6.190;2023-02-12T12:19:53;101521.58;;;9.17;70.64
63447;BME280;49577;49.872;6.190;2023-02-12T12:22:30;101517.47;;;9.14;70.24
63447;BME280;49577;49.872;6.190;2023-02-12T12:25:03;101513.65;;;9.06;70.22
63447;BME280;49577;49.872;6.190;2023-02-12T12:27:41;101511.02;;;9.00;70.43
63447;BME280;49577;49.872;6.190;2023-02-12T12:32:53;101509.00;;;8.97;70.58
63447;BME280;49577;49.872;6.190;2023-02-12T12:35:25;101513.42;;;8.95;70.73
63447;BME280;49577;49.872;6.190;2023-02-12T12:37:54;101508.54;;;8.95;70.94
63447;BME280;49577;49.872;6.190;2023-02-12T12:40:31;101514.69;;;8.94;70.89
63447;BME280;49577;49.872;6.190;2023-02-12T12:43:01;101511.11;;;8.90;70.81
63447;BME280;49577;49.872;6.190;2023-02-12T12:58:17;101506.69;;;8.78;71.41
63447;BME280;49577;49.872;6.190;2023-02-12T13:03:41;101500.59;;;8.78;71.33
63447;BME280;49577;49.872;6.190;2023-02-12T13:11:40;101496.44;;;8.70;71.44
63447;BME280;49577;49.872;6.190;2023-02-12T13:19:31;101489.30;;;8.64;71.64
63447;BME280;49577;49.872;6.190;2023-02-12T13:24:54;101482.64;;;8.65;72.01
63447;BME280;49577;49.872;6.190;2023-02-12T13:27:21;101486.95;;;8.67;71.69
63447;BME280;49577;49.872;6.190;2023-02-12T13:29:48;101488.68;;;8.67;71.50
63447;BME280;49577;49.872;6.190;2023-02-12T13:32:16;101484.73;;;8.65;71.44
63447;BME280;49577;49.872;6.190;2023-02-12T13:34:44;101479.23;;;8.61;71.12
63447;BME280;49577;49.872;6.190;2023-02-12T13:37:12;101479.95;;;8.61;71.68
63447;BME280;49577;49.872;6.190;2023-02-12T13:39:39;101475.37;;;8.63;71.72
63447;BME280;49577;49.872;6.190;2023-02-12T13:44:32;101473.56;;;8.66;71.64
63447;BME280;49577;49.872;6.190;2023-02-12T13:47:05;101469.59;;;8.65;71.53
63447;BME280;49577;49.872;6.190;2023-02-12T13:49:40;101470.74;;;8.60;71.26
63447;BME280;49577;49.872;6.190;2023-02-12T13:52:22;101469.58;;;8.58;71.73
63447;BME280;49577;49.872;6.190;2023-02-12T13:55:34;101466.91;;;8.60;71.51
63447;BME280;49577;49.872;6.190;2023-02-12T13:57:39;101463.27;;;8.59;71.40
63447;BME280;49577;49.872;6.190;2023-02-12T14:00:04;101463.38;;;8.61;71.70
63447;BME280;49577;49.872;6.190;2023-02-12T14:05:01;101454.52;;;8.68;71.19
63447;BME280;49577;49.872;6.190;2023-02-12T14:10:20;101455.02;;;8.75;71.37
63447;BME280;49577;49.872;6.190;2023-02-12T14:12:46;101450.00;;;8.81;71.21
63447;BME280;49577;49.872;6.190;2023-02-12T14:15:23;101453.18;;;8.86;71.14
63447;BME280;49577;49.872;6.190;2023-02-12T14:17:54;101452.21;;;8.90;70.92
63447;BME280;49577;49.872;6.190;2023-02-12T14:37:54;101442.78;;;8.83;70.99
63447;BME280;49577;49.872;6.190;2023-02-12T14:42:57;101442.48;;;8.82;71.05
63447;BME280;49577;49.872;6.190;2023-02-12T14:45:27;101440.12;;;8.79;70.78
63447;BME280;49577;49.872;6.190;2023-02-12T14:47:52;101438.46;;;8.75;71.13
63447;BME280;49577;49.872;6.190;2023-02-12T14:50:19;101437.05;;;8.76;71.13
63447;BME280;49577;49.872;6.190;2023-02-12T14:52:49;101435.98;;;8.77;71.10
63447;BME280;49577;49.872;6.190;2023-02-12T14:55:17;101438.66;;;8.75;71.04
63447;BME280;49577;49.872;6.190;2023-02-12T14:57:44;101437.06;;;8.76;71.07
63447;BME280;49577;49.872;6.190;2023-02-12T15:02:34;101432.10;;;8.79;71.43
63447;BME280;49577;49.872;6.190;2023-02-12T15:05:01;101435.14;;;8.83;71.35
63447;BME280;49577;49.872;6.190;2023-02-12T15:07:30;101436.02;;;8.90;71.31
63447;BME280;49577;49.872;6.190;2023-02-12T15:09:57;101436.52;;;8.90;71.02
63447;BME280;49577;49.872;6.190;2023-02-12T15:12:29;101434.15;;;8.87;71.06
63447;BME280;49577;49.872;6.190;2023-02-12T15:15:20;101431.61;;;8.84;71.20